createdAt,value
2023-04-24T00:04:22.346Z,8.43
2023-04-24T00:09:24.389Z,8.35
2023-04-24T00:14:25.897Z,8.27
2023-04-24T00:19:29.079Z,8.40
2023-04-24T00:24:30.906Z,8.25
2023-04-24T00:29:32.452Z,5.97
2023-04-24T00:34:33.910Z,6.70
2023-04-24T00:39:35.365Z,6.68
2023-04-24T00:44:36.923Z,7.78
2023-04-24T00:49:38.373Z,6.28
2023-04-24T00:54:39.880Z,4.57
2023-04-24T00:59:42.429Z,5.78
2023-04-24T01:04:44.207Z,5.90
2023-04-24T01:09:48.515Z,5.18
2023-04-24T01:14:50.307Z,5.60
2023-04-24T01:19:54.838Z,6.72
2023-04-24T01:24:56.372Z,4.78
2023-04-24T01:29:58.030Z,5.40
2023-04-24T01:34:59.570Z,5.05
2023-04-24T01:40:01.118Z,5.10
2023-04-24T01:45:04.393Z,4.72
2023-04-24T01:50:06.546Z,6.05
2023-04-24T01:55:08.274Z,6.70
2023-04-24T02:00:09.999Z,4.03
2023-04-24T02:05:12.051Z,5.32
2023-04-24T02:10:13.580Z,6.70
2023-04-24T02:15:15.055Z,3.72
2023-04-24T02:20:16.565Z,5.45
2023-04-24T02:25:18.020Z,6.07
2023-04-24T02:30:19.568Z,5.80
2023-04-24T02:35:21.153Z,8.02
2023-04-24T02:40:22.650Z,8.45
2023-04-24T02:45:24.179Z,9.55
2023-04-24T02:50:25.689Z,9.65
2023-04-24T02:55:27.214Z,10.02
2023-04-24T03:00:28.688Z,9.02
2023-04-24T03:05:31.852Z,8.43
2023-04-24T03:10:33.655Z,11.20
2023-04-24T03:15:35.195Z,7.68
2023-04-24T03:20:38.046Z,8.68
2023-04-24T03:25:39.965Z,8.57
2023-04-24T03:30:41.653Z,10.20
2023-04-24T03:35:43.119Z,10.43
2023-04-24T03:40:44.557Z,9.23
2023-04-24T03:45:46.067Z,8.95
2023-04-24T03:50:47.644Z,8.55
2023-04-24T03:55:49.166Z,8.93
2023-04-24T04:00:50.904Z,8.82
2023-04-24T04:05:52.367Z,9.68
2023-04-24T04:10:53.799Z,9.82
2023-04-24T04:15:55.832Z,11.23
2023-04-24T04:20:58.089Z,9.38
2023-04-24T04:25:59.690Z,10.10
2023-04-24T04:31:02.038Z,10.77
2023-04-24T04:36:04.857Z,11.90
2023-04-24T04:41:06.598Z,11.85
2023-04-24T04:46:09.540Z,10.88
2023-04-24T04:51:11.160Z,9.38
2023-04-24T04:56:13.300Z,9.75
2023-04-24T05:01:15.035Z,9.98
2023-04-24T05:06:16.755Z,10.52
2023-04-24T05:11:18.304Z,9.82
2023-04-24T05:16:19.777Z,9.07
2023-04-24T05:21:21.326Z,7.78
2023-04-24T05:26:23.970Z,7.75
2023-04-24T05:31:26.509Z,6.88
2023-04-24T05:36:28.347Z,7.30
2023-04-24T05:41:29.912Z,13.15
2023-04-24T05:46:31.500Z,16.90
2023-04-24T05:51:33.127Z,28.33
2023-04-24T05:56:34.640Z,23.67
2023-04-24T06:01:37.201Z,25.35
2023-04-24T06:06:38.872Z,22.67
2023-04-24T06:11:40.344Z,18.95
2023-04-24T06:16:43.104Z,16.10
2023-04-24T06:21:44.644Z,17.98
2023-04-24T06:26:46.185Z,17.90
2023-04-24T06:31:47.772Z,20.33
2023-04-24T06:36:49.330Z,15.48
2023-04-24T06:41:50.958Z,18.10
2023-04-24T06:46:52.760Z,18.23
2023-04-24T06:51:54.269Z,15.70
2023-04-24T06:56:56.423Z,15.82
2023-04-24T07:01:58.140Z,18.40
2023-04-24T07:06:59.721Z,17.02
2023-04-24T07:12:01.359Z,16.10
2023-04-24T07:17:03.585Z,20.73
2023-04-24T07:22:05.088Z,14.13
2023-04-24T07:27:06.782Z,13.73
2023-04-24T07:32:08.943Z,13.40
2023-04-24T07:37:10.531Z,15.93
2023-04-24T07:42:12.168Z,17.55
2023-04-24T07:47:13.688Z,16.98
2023-04-24T07:52:15.207Z,14.40
2023-04-24T07:57:17.128Z,11.18
2023-04-24T08:02:18.622Z,13.30
2023-04-24T08:07:20.134Z,12.85
2023-04-24T08:12:21.655Z,15.65
2023-04-24T08:17:23.229Z,17.77
2023-04-24T08:22:25.923Z,14.93
2023-04-24T08:27:27.728Z,12.30
2023-04-24T08:32:30.054Z,13.30
2023-04-24T08:37:31.984Z,15.35
2023-04-24T08:42:35.357Z,15.55
2023-04-24T08:47:37.031Z,16.20
2023-04-24T08:52:38.620Z,15.40
2023-04-24T08:57:41.444Z,14.35
2023-04-24T09:02:44.673Z,17.08
2023-04-24T09:07:47.533Z,18.40
2023-04-24T09:12:50.707Z,17.45
2023-04-24T09:17:52.172Z,14.95
2023-04-24T09:22:57.808Z,12.30
2023-04-24T09:28:01.470Z,13.85
2023-04-24T09:33:13.616Z,13.77
2023-04-24T09:38:15.297Z,14.38
2023-04-24T09:43:17.094Z,14.60
2023-04-24T09:48:18.572Z,19.70
2023-04-24T09:53:24.690Z,15.57
2023-04-24T09:58:27.723Z,16.17
2023-04-24T10:03:32.902Z,12.65
2023-04-24T10:08:35.667Z,11.15
2023-04-24T10:13:37.484Z,11.13
2023-04-24T10:18:40.188Z,9.95
2023-04-24T10:23:42.712Z,5.95
2023-04-24T10:28:48.365Z,8.65
2023-04-24T10:33:51.086Z,9.23
2023-04-24T10:38:53.853Z,14.75
2023-04-24T10:44:13.804Z,7.55
2023-04-24T10:49:15.394Z,8.60
2023-04-24T10:54:24.002Z,8.25
2023-04-24T10:59:26.466Z,10.43
2023-04-24T11:04:33.036Z,10.63
2023-04-24T11:09:36.089Z,9.90
2023-04-24T11:14:56.608Z,12.70
2023-04-24T11:20:18.909Z,9.35
2023-04-24T11:25:31.395Z,7.35
2023-04-24T11:30:34.630Z,5.82
2023-04-24T11:35:38.515Z,8.32
2023-04-24T11:40:40.052Z,7.30
2023-04-24T11:45:48.895Z,9.07
2023-04-24T11:50:50.999Z,5.05
2023-04-24T11:55:52.454Z,4.93
2023-04-24T12:00:58.167Z,3.88
2023-04-24T12:06:09.666Z,6.32
2023-04-24T12:11:11.242Z,11.52
2023-04-24T12:16:14.094Z,12.70
2023-04-24T12:21:21.417Z,12.43
2023-04-24T12:26:24.551Z,11.80
2023-04-24T12:31:27.947Z,6.90
2023-04-24T12:36:32.122Z,6.75
2023-04-24T12:41:34.706Z,14.82
2023-04-24T12:46:36.222Z,10.30
2023-04-24T12:51:37.791Z,9.27
2023-04-24T12:56:40.450Z,18.80
2023-04-24T13:01:42.434Z,16.67
2023-04-24T13:06:44.134Z,16.13
2023-04-24T13:11:45.734Z,17.95
2023-04-24T13:16:47.235Z,12.73
2023-04-24T13:21:48.734Z,14.73
2023-04-24T13:26:50.439Z,13.32
2023-04-24T13:31:52.470Z,15.63
2023-04-24T13:36:55.043Z,15.43
2023-04-24T13:41:56.856Z,14.85
2023-04-24T13:46:58.634Z,21.42
2023-04-24T13:52:00.255Z,16.42
2023-04-24T13:57:02.228Z,19.23
2023-04-24T14:02:03.982Z,20.55
2023-04-24T14:07:06.125Z,13.52
2023-04-24T14:12:08.086Z,13.70
2023-04-24T14:17:09.633Z,14.15
2023-04-24T14:22:11.132Z,15.82
2023-04-24T14:27:12.680Z,11.55
2023-04-24T14:32:16.023Z,14.63
2023-04-24T14:37:18.128Z,18.95
2023-04-24T14:42:19.613Z,14.75
2023-04-24T14:47:22.896Z,16.10
2023-04-24T14:52:24.935Z,16.00
2023-04-24T14:57:27.375Z,15.63
2023-04-24T15:02:29.065Z,14.02
2023-04-24T15:07:31.028Z,22.35
2023-04-24T15:12:32.582Z,16.23
2023-04-24T15:17:34.192Z,13.70
2023-04-24T15:22:36.384Z,13.45
2023-04-24T15:27:44.338Z,12.68
2023-04-24T15:32:46.036Z,16.58
2023-04-24T15:37:47.701Z,16.63
2023-04-24T15:42:49.349Z,10.63
2023-04-24T15:47:51.423Z,14.02
2023-04-24T15:52:52.856Z,8.93
2023-04-24T15:57:54.330Z,11.30
2023-04-24T16:02:55.981Z,9.77
2023-04-24T16:07:57.746Z,10.60
2023-04-24T16:13:01.223Z,12.25
2023-04-24T16:18:02.669Z,11.02
2023-04-24T16:23:04.348Z,11.07
2023-04-24T16:28:05.854Z,10.02
2023-04-24T16:33:09.999Z,9.48
2023-04-24T16:38:11.565Z,7.30
2023-04-24T16:43:13.096Z,9.68
2023-04-24T16:48:14.641Z,11.45
2023-04-24T16:53:16.304Z,7.45
2023-04-24T16:58:17.826Z,9.52
2023-04-24T17:03:19.533Z,9.35
2023-04-24T17:08:22.685Z,11.38
2023-04-24T17:13:24.303Z,11.98
2023-04-24T17:18:25.997Z,16.13
2023-04-24T17:23:27.474Z,12.63
2023-04-24T17:28:30.012Z,11.65
2023-04-24T17:33:31.721Z,10.15
2023-04-24T17:38:33.353Z,11.60
2023-04-24T17:43:34.863Z,13.30
2023-04-24T17:48:36.498Z,13.75
2023-04-24T17:53:38.161Z,12.82
2023-04-24T17:58:40.704Z,11.57
2023-04-24T18:03:43.964Z,14.60
2023-04-24T18:08:45.675Z,10.23
2023-04-24T18:13:47.315Z,12.60
2023-04-24T18:18:49.064Z,13.98
2023-04-24T18:23:50.867Z,11.15
2023-04-24T18:28:52.445Z,12.27
2023-04-24T18:33:55.358Z,12.13
2023-04-24T18:38:56.871Z,12.27
2023-04-24T18:43:59.410Z,13.27
2023-04-24T18:49:01.168Z,12.93
2023-04-24T18:54:02.635Z,11.38
2023-04-24T18:59:04.116Z,16.02
2023-04-24T19:04:05.683Z,13.32
2023-04-24T19:09:07.738Z,12.85
2023-04-24T19:14:09.395Z,17.33
2023-04-24T19:19:11.515Z,10.05
2023-04-24T19:24:13.070Z,17.65
2023-04-24T19:29:14.594Z,15.43
2023-04-24T19:34:16.166Z,15.38
2023-04-24T19:39:17.678Z,18.15
2023-04-24T19:44:20.115Z,15.05
2023-04-24T19:49:21.593Z,18.35
2023-04-24T19:54:23.402Z,17.92
2023-04-24T19:59:24.962Z,16.85
2023-04-24T20:04:26.669Z,15.07
2023-04-24T20:09:28.444Z,11.13
2023-04-24T20:14:30.036Z,19.92
2023-04-24T20:19:31.565Z,15.48
2023-04-24T20:24:33.350Z,18.42
2023-04-24T20:29:35.112Z,15.35
2023-04-24T20:34:37.194Z,22.85
2023-04-24T20:39:39.387Z,15.73
2023-04-24T20:44:41.621Z,19.83
2023-04-24T20:49:43.159Z,20.05
2023-04-24T20:54:44.775Z,23.40
2023-04-24T20:59:46.311Z,17.77
2023-04-24T21:04:47.817Z,18.20
2023-04-24T21:09:49.884Z,22.58
2023-04-24T21:14:51.578Z,17.75
2023-04-24T21:19:53.155Z,18.52
2023-04-24T21:24:54.644Z,22.80
2023-04-24T21:29:56.422Z,16.52
2023-04-24T21:34:59.523Z,15.52
2023-04-24T21:40:01.013Z,11.10
2023-04-24T21:45:02.547Z,17.55
2023-04-24T21:50:07.502Z,12.25
2023-04-24T21:55:09.294Z,12.80
2023-04-24T22:00:11.463Z,14.10
2023-04-24T22:05:18.820Z,12.32
2023-04-24T22:10:20.829Z,19.20
2023-04-24T22:15:23.196Z,15.80
2023-04-24T22:20:26.032Z,23.00
2023-04-24T22:25:27.568Z,15.10
2023-04-24T22:30:29.039Z,19.27
2023-04-24T22:35:30.606Z,19.50
2023-04-24T22:40:32.636Z,24.23
2023-04-24T22:45:34.288Z,21.10
2023-04-24T22:50:35.907Z,18.45
2023-04-24T22:55:37.405Z,18.02
2023-04-24T23:00:39.061Z,18.85
2023-04-24T23:05:40.936Z,22.88
2023-04-24T23:10:42.695Z,21.38
2023-04-24T23:15:44.121Z,23.00
2023-04-24T23:20:45.970Z,17.48
2023-04-24T23:25:47.458Z,16.60
2023-04-24T23:30:49.043Z,14.43
2023-04-24T23:35:50.544Z,18.33
2023-04-24T23:40:52.148Z,16.02
2023-04-24T23:45:53.608Z,18.02
2023-04-24T23:50:55.138Z,15.10
2023-04-24T23:55:56.648Z,15.20
